KHNB/HNB METAR and TAF weather

Enter ICAO airport designator
Station Type Date Time Source
KHNB METAR 2021/05/14 05:56 UTC NOAA

KHNB 140556Z AUTO 32003KT 10SM CLR 07/05 A3032 RMK AO2 SLP267 T00720050 10167 20067 58001


Station Type Date Time Source
KHNB Decoded METAR 2021/05/14 05:56 UTC NOAA

Huntingburg, IN, United States (KHNB) 38-15N 086-57W
May 14, 2021 - 01:56 AM EDT / 2021.05.14 0556 UTC
Wind: from the NW (320 degrees) at 3 MPH (3 KT):0
Visibility: 10 mile(s):0
Sky conditions: clear
Temperature: 45.0 F (7.2 C)
Dew Point: 41.0 F (5.0 C)
Relative Humidity: 85%
Pressure (altimeter): 30.32 in. Hg (1026 hPa)
Pressure tendency: 0.00 inches (0.1 hPa) lower than three hours ago
ob: KHNB 140556Z AUTO 32003KT 10SM CLR 07/05 A3032 RMK AO2 SLP267 T00720050 10167 20067 58001
cycle: 6

Station Type Date Time Source
KHNB TAF 2021/05/14 06:21 UTC NOAA

TAF KHNB 140520Z 1406/1506 VRB02KT P6SM FEW090
FM141500 07005KT P6SM FEW070
FM141800 12006KT P6SM SCT070

Example: see airport list